sensor_id;sensor_type;location;lat;lon;timestamp;temperature;humidity
17988;DHT22;9119;50.932;5.342;2023-02-04T00:02:25;9.00;99.90
17988;DHT22;9119;50.932;5.342;2023-02-04T00:04:53;9.00;99.90
17988;DHT22;9119;50.932;5.342;2023-02-04T00:07:22;8.80;99.90
17988;DHT22;9119;50.932;5.342;2023-02-04T00:09:48;8.70;99.90
17988;DHT22;9119;50.932;5.342;2023-02-04T00:12:15;8.70;99.90
17988;DHT22;9119;50.932;5.342;2023-02-04T00:14:40;8.70;99.90
17988;DHT22;9119;50.932;5.342;2023-02-04T00:17:06;8.80;99.90
17988;DHT22;9119;50.932;5.342;2023-02-04T00:19:32;9.00;99.90
17988;DHT22;9119;50.932;5.342;2023-02-04T00:21:58;9.00;99.90
17988;DHT22;9119;50.932;5.342;2023-02-04T00:24:24;8.90;99.90
17988;DHT22;9119;50.932;5.342;2023-02-04T00:26:49;8.80;99.90
17988;DHT22;9119;50.932;5.342;2023-02-04T00:29:15;8.80;99.90
17988;DHT22;9119;50.932;5.342;2023-02-04T00:31:41;8.80;99.90
17988;DHT22;9119;50.932;5.342;2023-02-04T00:34:07;8.80;99.90
17988;DHT22;9119;50.932;5.342;2023-02-04T00:36:33;8.90;99.90
17988;DHT22;9119;50.932;5.342;2023-02-04T00:38:58;9.00;99.90
17988;DHT22;9119;50.932;5.342;2023-02-04T00:41:24;8.80;99.90
17988;DHT22;9119;50.932;5.342;2023-02-04T00:43:49;8.70;99.90
17988;DHT22;9119;50.932;5.342;2023-02-04T00:46:15;8.80;99.90
17988;DHT22;9119;50.932;5.342;2023-02-04T00:48:41;8.60;99.90
17988;DHT22;9119;50.932;5.342;2023-02-04T00:51:06;8.50;99.90
17988;DHT22;9119;50.932;5.342;2023-02-04T00:53:32;8.50;99.90
17988;DHT22;9119;50.932;5.342;2023-02-04T00:55:58;8.50;99.90
17988;DHT22;9119;50.932;5.342;2023-02-04T00:58:23;8.60;99.90
17988;DHT22;9119;50.932;5.342;2023-02-04T01:00:49;8.50;99.90
17988;DHT22;9119;50.932;5.342;2023-02-04T01:03:15;8.40;99.90
17988;DHT22;9119;50.932;5.342;2023-02-04T01:05:40;8.50;99.90
17988;DHT22;9119;50.932;5.342;2023-02-04T01:08:06;8.40;99.90
17988;DHT22;9119;50.932;5.342;2023-02-04T01:10:32;8.40;99.90
17988;DHT22;9119;50.932;5.342;2023-02-04T01:12:58;8.30;99.90
17988;DHT22;9119;50.932;5.342;2023-02-04T01:15:23;8.40;99.90
17988;DHT22;9119;50.932;5.342;2023-02-04T01:17:49;8.60;99.90
17988;DHT22;9119;50.932;5.342;2023-02-04T01:20:15;8.60;99.90
17988;DHT22;9119;50.932;5.342;2023-02-04T01:22:41;8.60;99.90
17988;DHT22;9119;50.932;5.342;2023-02-04T01:25:07;8.50;99.90
17988;DHT22;9119;50.932;5.342;2023-02-04T01:27:33;8.40;99.90
17988;DHT22;9119;50.932;5.342;2023-02-04T01:29:58;8.50;99.90
17988;DHT22;9119;50.932;5.342;2023-02-04T01:32:24;8.50;99.90
17988;DHT22;9119;50.932;5.342;2023-02-04T01:34:50;8.40;99.90
17988;DHT22;9119;50.932;5.342;2023-02-04T01:37:15;8.40;99.90
17988;DHT22;9119;50.932;5.342;2023-02-04T01:39:42;8.30;99.90
17988;DHT22;9119;50.932;5.342;2023-02-04T01:42:08;8.30;99.90
17988;DHT22;9119;50.932;5.342;2023-02-04T01:44:34;8.40;99.90
17988;DHT22;9119;50.932;5.342;2023-02-04T01:47:03;8.40;99.90
17988;DHT22;9119;50.932;5.342;2023-02-04T01:49:28;8.30;99.90
17988;DHT22;9119;50.932;5.342;2023-02-04T01:51:54;8.40;99.90
17988;DHT22;9119;50.932;5.342;2023-02-04T01:54:20;8.30;99.90
17988;DHT22;9119;50.932;5.342;2023-02-04T01:56:47;8.40;99.90
17988;DHT22;9119;50.932;5.342;2023-02-04T01:59:17;8.60;99.90
17988;DHT22;9119;50.932;5.342;2023-02-04T02:01:46;8.60;99.90
17988;DHT22;9119;50.932;5.342;2023-02-04T02:04:19;8.60;99.90
17988;DHT22;9119;50.932;5.342;2023-02-04T02:06:51;8.50;99.90
17988;DHT22;9119;50.932;5.342;2023-02-04T02:09:17;8.60;99.90
17988;DHT22;9119;50.932;5.342;2023-02-04T02:11:43;8.60;99.90
17988;DHT22;9119;50.932;5.342;2023-02-04T02:14:08;8.70;99.90
17988;DHT22;9119;50.932;5.342;2023-02-04T02:16:34;8.70;99.90
17988;DHT22;9119;50.932;5.342;2023-02-04T02:19:00;8.70;99.90
17988;DHT22;9119;50.932;5.342;2023-02-04T02:21:39;8.70;99.90
17988;DHT22;9119;50.932;5.342;2023-02-04T02:24:32;8.60;99.90
17988;DHT22;9119;50.932;5.342;2023-02-04T02:27:04;8.70;99.90
17988;DHT22;9119;50.932;5.342;2023-02-04T02:29:31;8.70;99.90
17988;DHT22;9119;50.932;5.342;2023-02-04T02:31:57;8.70;99.90
17988;DHT22;9119;50.932;5.342;2023-02-04T02:34:25;8.90;99.90
17988;DHT22;9119;50.932;5.342;2023-02-04T02:36:51;8.60;99.90
17988;DHT22;9119;50.932;5.342;2023-02-04T02:39:17;8.60;99.90
17988;DHT22;9119;50.932;5.342;2023-02-04T02:41:43;8.60;99.90
17988;DHT22;9119;50.932;5.342;2023-02-04T02:44:11;8.60;99.90
17988;DHT22;9119;50.932;5.342;2023-02-04T02:46:38;8.60;99.90
17988;DHT22;9119;50.932;5.342;2023-02-04T02:49:04;8.50;99.90
17988;DHT22;9119;50.932;5.342;2023-02-04T02:51:30;8.40;99.90
17988;DHT22;9119;50.932;5.342;2023-02-04T02:53:57;8.40;99.90
17988;DHT22;9119;50.932;5.342;2023-02-04T02:56:23;8.30;99.90
17988;DHT22;9119;50.932;5.342;2023-02-04T02:58:48;8.10;99.90
17988;DHT22;9119;50.932;5.342;2023-02-04T03:01:14;8.30;99.90
17988;DHT22;9119;50.932;5.342;2023-02-04T03:03:50;8.20;99.90
17988;DHT22;9119;50.932;5.342;2023-02-04T03:06:22;8.20;99.90
17988;DHT22;9119;50.932;5.342;2023-02-04T03:08:50;8.20;99.90
17988;DHT22;9119;50.932;5.342;2023-02-04T03:11:17;8.20;99.90
17988;DHT22;9119;50.932;5.342;2023-02-04T03:13:42;8.30;99.90
17988;DHT22;9119;50.932;5.342;2023-02-04T03:16:08;8.30;99.90
17988;DHT22;9119;50.932;5.342;2023-02-04T03:18:35;8.30;99.90
17988;DHT22;9119;50.932;5.342;2023-02-04T03:21:03;8.20;99.90
17988;DHT22;9119;50.932;5.342;2023-02-04T03:23:30;8.30;99.90
17988;DHT22;9119;50.932;5.342;2023-02-04T03:25:58;8.30;99.90
17988;DHT22;9119;50.932;5.342;2023-02-04T03:28:24;8.40;99.90
17988;DHT22;9119;50.932;5.342;2023-02-04T03:30:50;8.30;99.90
17988;DHT22;9119;50.932;5.342;2023-02-04T03:33:23;8.40;99.90
17988;DHT22;9119;50.932;5.342;2023-02-04T03:35:50;8.30;99.90
17988;DHT22;9119;50.932;5.342;2023-02-04T03:38:17;8.20;99.90
17988;DHT22;9119;50.932;5.342;2023-02-04T03:40:43;8.30;99.90
17988;DHT22;9119;50.932;5.342;2023-02-04T03:43:09;8.30;99.90
17988;DHT22;9119;50.932;5.342;2023-02-04T03:45:34;8.30;99.90
17988;DHT22;9119;50.932;5.342;2023-02-04T03:48:00;8.40;99.90
17988;DHT22;9119;50.932;5.342;2023-02-04T03:50:26;8.40;99.90
17988;DHT22;9119;50.932;5.342;2023-02-04T03:52:52;8.40;99.90
17988;DHT22;9119;50.932;5.342;2023-02-04T03:55:18;8.40;99.90
17988;DHT22;9119;50.932;5.342;2023-02-04T03:57:44;8.40;99.90
17988;DHT22;9119;50.932;5.342;2023-02-04T04:00:10;8.60;99.90
17988;DHT22;9119;50.932;5.342;2023-02-04T04:02:36;8.40;99.90
17988;DHT22;9119;50.932;5.342;2023-02-04T04:05:02;8.40;99.90
17988;DHT22;9119;50.932;5.342;2023-02-04T04:07:27;8.40;99.90
17988;DHT22;9119;50.932;5.342;2023-02-04T04:09:53;8.40;99.90
17988;DHT22;9119;50.932;5.342;2023-02-04T04:12:18;8.30;99.90
17988;DHT22;9119;50.932;5.342;2023-02-04T04:14:44;8.40;99.90
17988;DHT22;9119;50.932;5.342;2023-02-04T04:17:10;8.30;99.90
17988;DHT22;9119;50.932;5.342;2023-02-04T04:19:35;8.20;99.90
17988;DHT22;9119;50.932;5.342;2023-02-04T04:22:01;8.20;99.90
17988;DHT22;9119;50.932;5.342;2023-02-04T04:24:27;8.20;99.90
17988;DHT22;9119;50.932;5.342;2023-02-04T04:26:52;8.30;99.90
17988;DHT22;9119;50.932;5.342;2023-02-04T04:29:18;8.20;99.90
17988;DHT22;9119;50.932;5.342;2023-02-04T04:31:43;8.20;99.90
17988;DHT22;9119;50.932;5.342;2023-02-04T04:34:10;8.20;99.90
17988;DHT22;9119;50.932;5.342;2023-02-04T04:36:35;8.00;99.90
17988;DHT22;9119;50.932;5.342;2023-02-04T04:39:01;8.20;99.90
17988;DHT22;9119;50.932;5.342;2023-02-04T04:41:27;8.30;99.90
17988;DHT22;9119;50.932;5.342;2023-02-04T04:43:55;8.30;99.90
17988;DHT22;9119;50.932;5.342;2023-02-04T04:46:21;8.20;99.90
17988;DHT22;9119;50.932;5.342;2023-02-04T04:48:47;8.20;99.90
17988;DHT22;9119;50.932;5.342;2023-02-04T04:51:12;8.20;99.90
17988;DHT22;9119;50.932;5.342;2023-02-04T04:53:38;8.40;99.90
17988;DHT22;9119;50.932;5.342;2023-02-04T04:56:04;8.20;99.90
17988;DHT22;9119;50.932;5.342;2023-02-04T04:58:29;8.20;99.90
17988;DHT22;9119;50.932;5.342;2023-02-04T05:00:55;8.10;99.90
17988;DHT22;9119;50.932;5.342;2023-02-04T05:03:20;8.20;99.90
17988;DHT22;9119;50.932;5.342;2023-02-04T05:05:46;8.20;99.90
17988;DHT22;9119;50.932;5.342;2023-02-04T05:08:12;8.20;99.90
17988;DHT22;9119;50.932;5.342;2023-02-04T05:10:42;8.10;99.90
17988;DHT22;9119;50.932;5.342;2023-02-04T05:13:08;8.10;99.90
17988;DHT22;9119;50.932;5.342;2023-02-04T05:15:34;8.20;99.90
17988;DHT22;9119;50.932;5.342;2023-02-04T05:18:00;8.20;99.90
17988;DHT22;9119;50.932;5.342;2023-02-04T05:20:26;8.20;99.90
17988;DHT22;9119;50.932;5.342;2023-02-04T05:22:52;8.10;99.90
17988;DHT22;9119;50.932;5.342;2023-02-04T05:25:17;8.10;99.90
17988;DHT22;9119;50.932;5.342;2023-02-04T05:27:44;8.20;99.90
17988;DHT22;9119;50.932;5.342;2023-02-04T05:30:12;8.20;99.90
17988;DHT22;9119;50.932;5.342;2023-02-04T05:32:41;8.20;99.90
17988;DHT22;9119;50.932;5.342;2023-02-04T05:35:07;8.20;99.90
17988;DHT22;9119;50.932;5.342;2023-02-04T05:37:33;8.20;99.90
17988;DHT22;9119;50.932;5.342;2023-02-04T05:39:59;8.20;99.90
17988;DHT22;9119;50.932;5.342;2023-02-04T05:42:24;8.20;99.90
17988;DHT22;9119;50.932;5.342;2023-02-04T05:44:50;8.20;99.90
17988;DHT22;9119;50.932;5.342;2023-02-04T05:47:16;8.20;99.90
17988;DHT22;9119;50.932;5.342;2023-02-04T05:49:41;8.20;99.90
17988;DHT22;9119;50.932;5.342;2023-02-04T05:52:07;8.20;99.90
17988;DHT22;9119;50.932;5.342;2023-02-04T05:54:33;8.30;99.90
17988;DHT22;9119;50.932;5.342;2023-02-04T05:56:58;8.20;99.90
17988;DHT22;9119;50.932;5.342;2023-02-04T05:59:24;8.30;99.90
17988;DHT22;9119;50.932;5.342;2023-02-04T06:01:50;8.30;99.90
17988;DHT22;9119;50.932;5.342;2023-02-04T06:04:15;8.40;99.90
17988;DHT22;9119;50.932;5.342;2023-02-04T06:06:42;8.30;99.90
17988;DHT22;9119;50.932;5.342;2023-02-04T06:09:08;8.30;99.90
17988;DHT22;9119;50.932;5.342;2023-02-04T06:11:34;8.30;99.90
17988;DHT22;9119;50.932;5.342;2023-02-04T06:14:00;8.30;99.90
17988;DHT22;9119;50.932;5.342;2023-02-04T06:16:26;8.30;99.90
17988;DHT22;9119;50.932;5.342;2023-02-04T06:18:51;8.20;99.90
17988;DHT22;9119;50.932;5.342;2023-02-04T06:21:17;8.20;99.90
17988;DHT22;9119;50.932;5.342;2023-02-04T06:23:43;8.00;99.90
17988;DHT22;9119;50.932;5.342;2023-02-04T06:26:09;8.00;99.90
17988;DHT22;9119;50.932;5.342;2023-02-04T06:28:34;7.90;99.90
17988;DHT22;9119;50.932;5.342;2023-02-04T06:31:00;7.90;99.90
17988;DHT22;9119;50.932;5.342;2023-02-04T06:33:26;7.90;99.90
17988;DHT22;9119;50.932;5.342;2023-02-04T06:35:51;8.00;99.90
17988;DHT22;9119;50.932;5.342;2023-02-04T06:38:17;8.00;99.90
17988;DHT22;9119;50.932;5.342;2023-02-04T06:40:43;7.90;99.90
17988;DHT22;9119;50.932;5.342;2023-02-04T06:43:11;7.90;99.90
17988;DHT22;9119;50.932;5.342;2023-02-04T06:45:37;7.90;99.90
17988;DHT22;9119;50.932;5.342;2023-02-04T06:48:02;8.00;99.90
17988;DHT22;9119;50.932;5.342;2023-02-04T06:50:28;8.00;99.90
17988;DHT22;9119;50.932;5.342;2023-02-04T06:52:54;8.00;99.90
17988;DHT22;9119;50.932;5.342;2023-02-04T06:55:19;8.00;99.90
17988;DHT22;9119;50.932;5.342;2023-02-04T06:57:45;8.10;99.90
17988;DHT22;9119;50.932;5.342;2023-02-04T07:00:11;8.10;99.90
17988;DHT22;9119;50.932;5.342;2023-02-04T07:02:37;8.20;99.90
17988;DHT22;9119;50.932;5.342;2023-02-04T07:05:04;8.30;99.90
17988;DHT22;9119;50.932;5.342;2023-02-04T07:07:30;8.40;99.90
17988;DHT22;9119;50.932;5.342;2023-02-04T07:09:55;8.40;99.90
17988;DHT22;9119;50.932;5.342;2023-02-04T07:12:21;8.30;99.90
17988;DHT22;9119;50.932;5.342;2023-02-04T07:14:47;8.40;99.90
17988;DHT22;9119;50.932;5.342;2023-02-04T07:17:12;8.20;99.90
17988;DHT22;9119;50.932;5.342;2023-02-04T07:19:38;8.20;99.90
17988;DHT22;9119;50.932;5.342;2023-02-04T07:22:04;8.20;99.90
17988;DHT22;9119;50.932;5.342;2023-02-04T07:24:30;8.20;99.90
17988;DHT22;9119;50.932;5.342;2023-02-04T07:26:55;8.20;99.90
17988;DHT22;9119;50.932;5.342;2023-02-04T07:29:21;8.10;99.90
17988;DHT22;9119;50.932;5.342;2023-02-04T07:31:47;8.00;99.90
17988;DHT22;9119;50.932;5.342;2023-02-04T07:34:16;8.10;99.90
17988;DHT22;9119;50.932;5.342;2023-02-04T07:36:42;8.20;99.90
17988;DHT22;9119;50.932;5.342;2023-02-04T07:39:08;8.20;99.90
17988;DHT22;9119;50.932;5.342;2023-02-04T07:41:34;8.20;99.90
17988;DHT22;9119;50.932;5.342;2023-02-04T07:44:00;8.10;99.90
17988;DHT22;9119;50.932;5.342;2023-02-04T07:46:26;7.90;99.90
17988;DHT22;9119;50.932;5.342;2023-02-04T07:48:51;7.90;99.90
17988;DHT22;9119;50.932;5.342;2023-02-04T07:51:17;8.00;99.90
17988;DHT22;9119;50.932;5.342;2023-02-04T07:53:43;8.00;99.90
17988;DHT22;9119;50.932;5.342;2023-02-04T07:56:08;8.10;99.90
17988;DHT22;9119;50.932;5.342;2023-02-04T07:58:34;8.20;99.90
17988;DHT22;9119;50.932;5.342;2023-02-04T08:01:00;8.20;99.90
17988;DHT22;9119;50.932;5.342;2023-02-04T08:03:26;8.20;99.90
17988;DHT22;9119;50.932;5.342;2023-02-04T08:05:52;8.30;99.90
17988;DHT22;9119;50.932;5.342;2023-02-04T08:08:17;8.40;99.90
17988;DHT22;9119;50.932;5.342;2023-02-04T08:10:43;8.50;99.90
17988;DHT22;9119;50.932;5.342;2023-02-04T08:13:09;8.40;99.90
17988;DHT22;9119;50.932;5.342;2023-02-04T08:15:35;8.40;99.90
17988;DHT22;9119;50.932;5.342;2023-02-04T08:18:00;8.50;99.90
17988;DHT22;9119;50.932;5.342;2023-02-04T08:20:26;8.40;99.90
17988;DHT22;9119;50.932;5.342;2023-02-04T08:22:52;8.40;99.90
17988;DHT22;9119;50.932;5.342;2023-02-04T08:25:18;8.50;99.90
17988;DHT22;9119;50.932;5.342;2023-02-04T08:27:43;8.60;99.90
17988;DHT22;9119;50.932;5.342;2023-02-04T08:30:10;8.70;99.90
17988;DHT22;9119;50.932;5.342;2023-02-04T08:32:35;8.70;99.90
17988;DHT22;9119;50.932;5.342;2023-02-04T08:35:01;8.70;99.90
17988;DHT22;9119;50.932;5.342;2023-02-04T08:37:27;8.80;99.90
17988;DHT22;9119;50.932;5.342;2023-02-04T08:39:53;8.80;99.90
17988;DHT22;9119;50.932;5.342;2023-02-04T08:42:18;8.80;99.90
17988;DHT22;9119;50.932;5.342;2023-02-04T08:44:44;8.70;99.90
17988;DHT22;9119;50.932;5.342;2023-02-04T08:47:10;8.70;99.90
17988;DHT22;9119;50.932;5.342;2023-02-04T08:49:36;8.80;99.90
17988;DHT22;9119;50.932;5.342;2023-02-04T08:52:03;8.80;99.90
17988;DHT22;9119;50.932;5.342;2023-02-04T08:54:30;8.90;99.90
17988;DHT22;9119;50.932;5.342;2023-02-04T08:56:56;9.00;99.90
17988;DHT22;9119;50.932;5.342;2023-02-04T08:59:22;9.10;99.90
17988;DHT22;9119;50.932;5.342;2023-02-04T09:01:49;9.10;99.90
17988;DHT22;9119;50.932;5.342;2023-02-04T09:04:17;9.10;99.90
17988;DHT22;9119;50.932;5.342;2023-02-04T09:06:44;9.10;99.90
17988;DHT22;9119;50.932;5.342;2023-02-04T09:09:09;9.10;99.90
17988;DHT22;9119;50.932;5.342;2023-02-04T09:11:35;9.10;99.90
17988;DHT22;9119;50.932;5.342;2023-02-04T09:14:01;9.10;99.90
17988;DHT22;9119;50.932;5.342;2023-02-04T09:16:27;9.20;99.90
17988;DHT22;9119;50.932;5.342;2023-02-04T09:18:52;9.20;99.90
17988;DHT22;9119;50.932;5.342;2023-02-04T09:21:18;9.20;99.90
17988;DHT22;9119;50.932;5.342;2023-02-04T09:23:43;9.00;99.90
17988;DHT22;9119;50.932;5.342;2023-02-04T09:26:11;8.90;99.90
17988;DHT22;9119;50.932;5.342;2023-02-04T09:28:37;9.00;99.90
17988;DHT22;9119;50.932;5.342;2023-02-04T09:31:03;9.10;99.90
17988;DHT22;9119;50.932;5.342;2023-02-04T09:33:31;9.00;99.90
17988;DHT22;9119;50.932;5.342;2023-02-04T09:35:57;9.10;99.90
17988;DHT22;9119;50.932;5.342;2023-02-04T09:38:22;9.10;99.90
17988;DHT22;9119;50.932;5.342;2023-02-04T09:40:57;9.10;99.90
17988;DHT22;9119;50.932;5.342;2023-02-04T09:43:29;9.00;99.90
17988;DHT22;9119;50.932;5.342;2023-02-04T09:45:57;9.20;99.90
17988;DHT22;9119;50.932;5.342;2023-02-04T09:48:23;9.10;99.90
17988;DHT22;9119;50.932;5.342;2023-02-04T09:51:02;9.00;99.90
17988;DHT22;9119;50.932;5.342;2023-02-04T09:53:29;9.10;99.90
17988;DHT22;9119;50.932;5.342;2023-02-04T09:55:56;9.20;99.90
17988;DHT22;9119;50.932;5.342;2023-02-04T09:58:22;9.30;99.90
17988;DHT22;9119;50.932;5.342;2023-02-04T10:00:57;9.30;99.90
17988;DHT22;9119;50.932;5.342;2023-02-04T10:03:23;9.30;99.90
17988;DHT22;9119;50.932;5.342;2023-02-04T10:05:49;9.30;99.90
17988;DHT22;9119;50.932;5.342;2023-02-04T10:08:23;9.30;99.90
17988;DHT22;9119;50.932;5.342;2023-02-04T10:10:50;9.30;99.90
17988;DHT22;9119;50.932;5.342;2023-02-04T10:13:19;9.30;99.90
17988;DHT22;9119;50.932;5.342;2023-02-04T10:15:46;9.40;99.90
17988;DHT22;9119;50.932;5.342;2023-02-04T10:18:34;9.40;99.90
17988;DHT22;9119;50.932;5.342;2023-02-04T10:21:15;9.50;99.90
17988;DHT22;9119;50.932;5.342;2023-02-04T10:23:43;9.60;99.90
17988;DHT22;9119;50.932;5.342;2023-02-04T10:26:11;9.70;99.90
17988;DHT22;9119;50.932;5.342;2023-02-04T10:28:38;9.60;99.90
17988;DHT22;9119;50.932;5.342;2023-02-04T10:31:05;9.70;99.90
17988;DHT22;9119;50.932;5.342;2023-02-04T10:33:33;9.50;99.90
17988;DHT22;9119;50.932;5.342;2023-02-04T10:36:03;9.50;99.90
17988;DHT22;9119;50.932;5.342;2023-02-04T10:38:29;9.60;99.90
17988;DHT22;9119;50.932;5.342;2023-02-04T10:41:03;9.50;99.90
17988;DHT22;9119;50.932;5.342;2023-02-04T10:43:30;9.40;99.90
17988;DHT22;9119;50.932;5.342;2023-02-04T10:46:01;9.50;99.90
17988;DHT22;9119;50.932;5.342;2023-02-04T10:48:27;9.50;99.90
17988;DHT22;9119;50.932;5.342;2023-02-04T10:50:56;9.40;99.90
17988;DHT22;9119;50.932;5.342;2023-02-04T10:53:24;9.40;99.90
17988;DHT22;9119;50.932;5.342;2023-02-04T10:56:18;9.40;99.90
17988;DHT22;9119;50.932;5.342;2023-02-04T10:58:44;9.50;99.90
17988;DHT22;9119;50.932;5.342;2023-02-04T11:01:11;9.60;99.90
17988;DHT22;9119;50.932;5.342;2023-02-04T11:03:39;9.60;99.90
17988;DHT22;9119;50.932;5.342;2023-02-04T11:06:10;9.60;99.90
17988;DHT22;9119;50.932;5.342;2023-02-04T11:08:37;9.50;99.90
17988;DHT22;9119;50.932;5.342;2023-02-04T11:11:10;9.50;99.90
17988;DHT22;9119;50.932;5.342;2023-02-04T11:21:28;9.60;99.90
17988;DHT22;9119;50.932;5.342;2023-02-04T11:26:48;9.60;99.90
17988;DHT22;9119;50.932;5.342;2023-02-04T11:29:29;9.70;99.90
17988;DHT22;9119;50.932;5.342;2023-02-04T11:32:32;9.70;99.90
17988;DHT22;9119;50.932;5.342;2023-02-04T11:35:23;9.70;99.90
17988;DHT22;9119;50.932;5.342;2023-02-04T11:37:48;9.60;99.90
17988;DHT22;9119;50.932;5.342;2023-02-04T11:40:32;9.60;99.90
17988;DHT22;9119;50.932;5.342;2023-02-04T11:43:15;9.70;99.90
17988;DHT22;9119;50.932;5.342;2023-02-04T11:45:41;9.70;99.90
17988;DHT22;9119;50.932;5.342;2023-02-04T11:48:17;9.60;99.90
17988;DHT22;9119;50.932;5.342;2023-02-04T11:50:57;9.80;99.90
17988;DHT22;9119;50.932;5.342;2023-02-04T11:53:31;9.80;99.90
17988;DHT22;9119;50.932;5.342;2023-02-04T11:55:57;9.90;99.90
17988;DHT22;9119;50.932;5.342;2023-02-04T11:58:24;10.00;99.90
17988;DHT22;9119;50.932;5.342;2023-02-04T12:00:52;9.90;99.90
17988;DHT22;9119;50.932;5.342;2023-02-04T12:03:24;9.80;99.90
17988;DHT22;9119;50.932;5.342;2023-02-04T12:05:50;9.80;99.90
17988;DHT22;9119;50.932;5.342;2023-02-04T12:13:22;9.80;99.90
17988;DHT22;9119;50.932;5.342;2023-02-04T12:16:02;9.80;99.90
17988;DHT22;9119;50.932;5.342;2023-02-04T12:18:29;9.90;99.90
17988;DHT22;9119;50.932;5.342;2023-02-04T12:20:55;9.90;99.90
17988;DHT22;9119;50.932;5.342;2023-02-04T12:23:22;9.90;99.90
17988;DHT22;9119;50.932;5.342;2023-02-04T12:25:48;9.90;99.90
17988;DHT22;9119;50.932;5.342;2023-02-04T12:28:14;9.90;99.90
17988;DHT22;9119;50.932;5.342;2023-02-04T12:30:40;9.90;99.90
17988;DHT22;9119;50.932;5.342;2023-02-04T12:33:06;9.80;99.90
17988;DHT22;9119;50.932;5.342;2023-02-04T12:35:32;9.80;99.90
17988;DHT22;9119;50.932;5.342;2023-02-04T12:37:58;9.80;99.90
17988;DHT22;9119;50.932;5.342;2023-02-04T12:40:24;9.90;99.90
17988;DHT22;9119;50.932;5.342;2023-02-04T12:42:49;10.00;99.90
17988;DHT22;9119;50.932;5.342;2023-02-04T12:45:16;10.00;99.90
17988;DHT22;9119;50.932;5.342;2023-02-04T12:47:42;10.00;99.90
17988;DHT22;9119;50.932;5.342;2023-02-04T12:50:16;10.00;99.90
17988;DHT22;9119;50.932;5.342;2023-02-04T12:52:55;10.10;99.90
17988;DHT22;9119;50.932;5.342;2023-02-04T12:55:22;10.00;99.90
17988;DHT22;9119;50.932;5.342;2023-02-04T12:57:48;10.00;99.90
17988;DHT22;9119;50.932;5.342;2023-02-04T13:00:16;9.90;99.90
17988;DHT22;9119;50.932;5.342;2023-02-04T13:02:42;9.80;99.90
17988;DHT22;9119;50.932;5.342;2023-02-04T13:05:08;10.00;99.90
17988;DHT22;9119;50.932;5.342;2023-02-04T13:07:34;10.00;99.90
17988;DHT22;9119;50.932;5.342;2023-02-04T13:10:00;10.00;99.90
17988;DHT22;9119;50.932;5.342;2023-02-04T13:12:26;9.90;99.90
17988;DHT22;9119;50.932;5.342;2023-02-04T13:14:51;10.10;99.90
17988;DHT22;9119;50.932;5.342;2023-02-04T13:17:17;10.10;99.90
17988;DHT22;9119;50.932;5.342;2023-02-04T13:19:43;10.00;99.90
17988;DHT22;9119;50.932;5.342;2023-02-04T13:22:08;9.90;99.90
17988;DHT22;9119;50.932;5.342;2023-02-04T13:24:34;10.00;99.90
17988;DHT22;9119;50.932;5.342;2023-02-04T13:27:00;10.00;99.90
17988;DHT22;9119;50.932;5.342;2023-02-04T13:29:26;10.20;99.90
17988;DHT22;9119;50.932;5.342;2023-02-04T13:31:52;10.10;99.90
17988;DHT22;9119;50.932;5.342;2023-02-04T13:34:17;10.20;99.90
17988;DHT22;9119;50.932;5.342;2023-02-04T13:36:43;10.20;99.90
17988;DHT22;9119;50.932;5.342;2023-02-04T13:39:10;10.30;99.90
17988;DHT22;9119;50.932;5.342;2023-02-04T13:41:35;10.30;99.90
17988;DHT22;9119;50.932;5.342;2023-02-04T13:44:02;10.30;99.90
17988;DHT22;9119;50.932;5.342;2023-02-04T13:46:28;10.30;99.90
17988;DHT22;9119;50.932;5.342;2023-02-04T13:48:56;10.30;99.90
17988;DHT22;9119;50.932;5.342;2023-02-04T13:51:22;10.30;99.90
17988;DHT22;9119;50.932;5.342;2023-02-04T13:53:48;10.30;99.90
17988;DHT22;9119;50.932;5.342;2023-02-04T13:56:13;10.30;99.90
17988;DHT22;9119;50.932;5.342;2023-02-04T13:58:39;10.20;99.90
17988;DHT22;9119;50.932;5.342;2023-02-04T14:01:09;10.00;99.90
17988;DHT22;9119;50.932;5.342;2023-02-04T14:03:35;10.00;99.90
17988;DHT22;9119;50.932;5.342;2023-02-04T14:06:01;10.00;99.90
17988;DHT22;9119;50.932;5.342;2023-02-04T14:08:26;10.10;99.90
17988;DHT22;9119;50.932;5.342;2023-02-04T14:10:52;10.20;99.90
17988;DHT22;9119;50.932;5.342;2023-02-04T14:13:18;10.10;99.90
17988;DHT22;9119;50.932;5.342;2023-02-04T14:15:44;10.10;99.90
17988;DHT22;9119;50.932;5.342;2023-02-04T14:18:09;10.20;99.90
17988;DHT22;9119;50.932;5.342;2023-02-04T14:20:36;10.20;99.90
17988;DHT22;9119;50.932;5.342;2023-02-04T14:23:02;10.20;99.90
17988;DHT22;9119;50.932;5.342;2023-02-04T14:25:28;9.90;99.90
17988;DHT22;9119;50.932;5.342;2023-02-04T14:27:54;9.90;99.90
17988;DHT22;9119;50.932;5.342;2023-02-04T14:30:23;9.90;99.90
17988;DHT22;9119;50.932;5.342;2023-02-04T14:32:49;9.80;99.90
17988;DHT22;9119;50.932;5.342;2023-02-04T14:35:15;9.80;99.90
17988;DHT22;9119;50.932;5.342;2023-02-04T14:37:41;9.80;99.90
17988;DHT22;9119;50.932;5.342;2023-02-04T14:40:08;9.80;99.90
17988;DHT22;9119;50.932;5.342;2023-02-04T14:42:34;9.80;99.90
17988;DHT22;9119;50.932;5.342;2023-02-04T14:45:00;9.80;99.90
17988;DHT22;9119;50.932;5.342;2023-02-04T14:47:33;9.70;99.90
17988;DHT22;9119;50.932;5.342;2023-02-04T14:49:59;9.70;99.90
17988;DHT22;9119;50.932;5.342;2023-02-04T14:52:25;9.70;99.90
17988;DHT22;9119;50.932;5.342;2023-02-04T14:54:50;9.70;99.90
17988;DHT22;9119;50.932;5.342;2023-02-04T14:57:16;9.80;99.90
17988;DHT22;9119;50.932;5.342;2023-02-04T14:59:41;9.80;99.90
17988;DHT22;9119;50.932;5.342;2023-02-04T15:02:09;9.80;99.90
17988;DHT22;9119;50.932;5.342;2023-02-04T15:04:35;9.80;99.90
17988;DHT22;9119;50.932;5.342;2023-02-04T15:07:04;9.60;99.90
17988;DHT22;9119;50.932;5.342;2023-02-04T15:09:29;9.70;99.90
17988;DHT22;9119;50.932;5.342;2023-02-04T15:11:55;9.70;99.90
17988;DHT22;9119;50.932;5.342;2023-02-04T15:14:21;9.60;99.90
17988;DHT22;9119;50.932;5.342;2023-02-04T15:16:47;9.60;99.90
17988;DHT22;9119;50.932;5.342;2023-02-04T15:19:14;9.60;99.90
17988;DHT22;9119;50.932;5.342;2023-02-04T15:21:40;9.70;99.90
17988;DHT22;9119;50.932;5.342;2023-02-04T15:24:08;9.60;99.90
17988;DHT22;9119;50.932;5.342;2023-02-04T15:26:34;9.50;99.90
17988;DHT22;9119;50.932;5.342;2023-02-04T15:29:00;9.50;99.90
17988;DHT22;9119;50.932;5.342;2023-02-04T15:31:26;9.60;99.90
17988;DHT22;9119;50.932;5.342;2023-02-04T15:33:52;9.50;99.90
17988;DHT22;9119;50.932;5.342;2023-02-04T15:36:18;9.50;99.90
17988;DHT22;9119;50.932;5.342;2023-02-04T15:38:44;9.50;99.90
17988;DHT22;9119;50.932;5.342;2023-02-04T15:41:10;9.40;99.90
17988;DHT22;9119;50.932;5.342;2023-02-04T15:43:36;9.40;99.90
17988;DHT22;9119;50.932;5.342;2023-02-04T15:46:02;9.50;99.90
17988;DHT22;9119;50.932;5.342;2023-02-04T15:48:27;9.50;99.90
17988;DHT22;9119;50.932;5.342;2023-02-04T15:50:54;9.40;99.90
17988;DHT22;9119;50.932;5.342;2023-02-04T15:53:20;9.40;99.90
17988;DHT22;9119;50.932;5.342;2023-02-04T15:55:46;9.50;99.90
17988;DHT22;9119;50.932;5.342;2023-02-04T15:58:12;9.50;99.90
17988;DHT22;9119;50.932;5.342;2023-02-04T16:00:38;9.50;99.90
17988;DHT22;9119;50.932;5.342;2023-02-04T16:03:04;9.50;99.90
17988;DHT22;9119;50.932;5.342;2023-02-04T16:05:30;9.50;99.90
17988;DHT22;9119;50.932;5.342;2023-02-04T16:07:55;9.50;99.90
17988;DHT22;9119;50.932;5.342;2023-02-04T16:10:21;9.50;99.90
17988;DHT22;9119;50.932;5.342;2023-02-04T16:12:47;9.50;99.90
17988;DHT22;9119;50.932;5.342;2023-02-04T16:15:13;9.60;99.90